sensor_id;sensor_type;location;lat;lon;timestamp;pressure;altitude;pressure_sealevel;temperature;humidity
71697;BME280;68167;59.120;37.898;2023-11-21T00:02:25;100066.94;;;-7.33;69.46
71697;BME280;68167;59.120;37.898;2023-11-21T00:04:53;100002.00;;;-7.68;69.68
71697;BME280;68167;59.120;37.898;2023-11-21T00:07:19;100062.72;;;-7.24;70.02
71697;BME280;68167;59.120;37.898;2023-11-21T00:09:48;100056.88;;;-7.26;69.96
71697;BME280;68167;59.120;37.898;2023-11-21T00:12:14;100035.09;;;-7.43;69.37
71697;BME280;68167;59.120;37.898;2023-11-21T00:14:40;100060.13;;;-7.34;69.69
71697;BME280;68167;59.120;37.898;2023-11-21T00:17:07;100061.34;;;-7.38;69.49
71697;BME280;68167;59.120;37.898;2023-11-21T00:19:33;100042.84;;;-7.43;69.53
71697;BME280;68167;59.120;37.898;2023-11-21T00:22:00;100033.03;;;-7.49;69.51
71697;BME280;68167;59.120;37.898;2023-11-21T00:24:27;100056.72;;;-7.44;69.10
71697;BME280;68167;59.120;37.898;2023-11-21T00:26:53;100047.31;;;-7.45;69.02
71697;BME280;68167;59.120;37.898;2023-11-21T00:29:20;99972.38;;;-7.83;68.95
71697;BME280;68167;59.120;37.898;2023-11-21T00:31:46;100028.94;;;-7.51;69.51
71697;BME280;68167;59.120;37.898;2023-11-21T00:34:12;99974.16;;;-7.84;69.41
71697;BME280;68167;59.120;37.898;2023-11-21T00:36:40;99979.56;;;-7.77;69.18
71697;BME280;68167;59.120;37.898;2023-11-21T00:39:06;99974.13;;;-7.74;69.46
71697;BME280;68167;59.120;37.898;2023-11-21T00:41:34;99988.13;;;-7.67;68.88
71697;BME280;68167;59.120;37.898;2023-11-21T00:44:02;100040.53;;;-7.46;69.07
71697;BME280;68167;59.120;37.898;2023-11-21T00:46:29;99999.69;;;-7.71;69.10
71697;BME280;68167;59.120;37.898;2023-11-21T00:48:56;100043.38;;;-7.49;69.27
71697;BME280;68167;59.120;37.898;2023-11-21T00:51:22;100012.06;;;-7.65;69.53
71697;BME280;68167;59.120;37.898;2023-11-21T00:53:49;100032.50;;;-7.52;69.19
71697;BME280;68167;59.120;37.898;2023-11-21T00:56:16;100024.03;;;-7.64;69.48
71697;BME280;68167;59.120;37.898;2023-11-21T00:58:42;99978.63;;;-7.86;68.36
71697;BME280;68167;59.120;37.898;2023-11-21T01:01:13;100026.63;;;-7.64;68.42
71697;BME280;68167;59.120;37.898;2023-11-21T01:03:40;100027.56;;;-7.65;68.57
71697;BME280;68167;59.120;37.898;2023-11-21T01:06:07;99976.28;;;-7.99;68.68
71697;BME280;68167;59.120;37.898;2023-11-21T01:08:35;100037.91;;;-7.65;69.27
71697;BME280;68167;59.120;37.898;2023-11-21T01:11:02;100022.94;;;-7.71;69.29
71697;BME280;68167;59.120;37.898;2023-11-21T01:13:28;99967.72;;;-7.99;69.19
71697;BME280;68167;59.120;37.898;2023-11-21T01:15:56;99992.63;;;-7.88;68.90
71697;BME280;68167;59.120;37.898;2023-11-21T01:18:22;100032.34;;;-7.60;68.89
71697;BME280;68167;59.120;37.898;2023-11-21T01:20:52;99977.94;;;-7.88;69.57
71697;BME280;68167;59.120;37.898;2023-11-21T01:23:21;99980.41;;;-7.86;69.25
71697;BME280;68167;59.120;37.898;2023-11-21T01:25:49;100002.56;;;-7.65;69.02
71697;BME280;68167;59.120;37.898;2023-11-21T01:28:17;99977.41;;;-7.91;69.07
71697;BME280;68167;59.120;37.898;2023-11-21T01:30:44;99853.25;;;-8.67;68.17
71697;BME280;68167;59.120;37.898;2023-11-21T01:33:11;100025.00;;;-7.65;68.96
71697;BME280;68167;59.120;37.898;2023-11-21T01:35:38;100015.31;;;-7.73;69.37
71697;BME280;68167;59.120;37.898;2023-11-21T01:38:04;99995.75;;;-7.85;68.71
71697;BME280;68167;59.120;37.898;2023-11-21T01:40:31;100005.94;;;-7.83;69.02
71697;BME280;68167;59.120;37.898;2023-11-21T01:42:57;99970.72;;;-8.04;69.03
71697;BME280;68167;59.120;37.898;2023-11-21T01:45:24;100013.13;;;-7.77;69.02
71697;BME280;68167;59.120;37.898;2023-11-21T01:47:52;99977.25;;;-8.00;67.99
71697;BME280;68167;59.120;37.898;2023-11-21T01:50:18;100013.28;;;-7.88;68.45
71697;BME280;68167;59.120;37.898;2023-11-21T01:52:46;100024.56;;;-7.89;68.55
71697;BME280;68167;59.120;37.898;2023-11-21T01:55:14;100032.72;;;-7.84;68.34
71697;BME280;68167;59.120;37.898;2023-11-21T01:57:45;99953.41;;;-8.22;69.04
71697;BME280;68167;59.120;37.898;2023-11-21T02:00:13;99974.47;;;-8.17;68.90
71697;BME280;68167;59.120;37.898;2023-11-21T02:02:47;99987.16;;;-8.05;68.63
71697;BME280;68167;59.120;37.898;2023-11-21T02:05:18;100003.19;;;-8.01;68.26
71697;BME280;68167;59.120;37.898;2023-11-21T02:07:45;100029.59;;;-7.88;68.32
71697;BME280;68167;59.120;37.898;2023-11-21T02:10:15;99987.25;;;-8.16;68.60
71697;BME280;68167;59.120;37.898;2023-11-21T02:12:45;100013.53;;;-8.01;68.29
71697;BME280;68167;59.120;37.898;2023-11-21T02:15:13;99987.63;;;-8.30;67.52
71697;BME280;68167;59.120;37.898;2023-11-21T02:17:47;99974.84;;;-8.41;67.95
71697;BME280;68167;59.120;37.898;2023-11-21T02:20:18;100015.53;;;-8.14;67.33
71697;BME280;68167;59.120;37.898;2023-11-21T02:25:16;99998.09;;;-8.22;68.08
71697;BME280;68167;59.120;37.898;2023-11-21T02:27:44;100029.66;;;-8.09;67.58
71697;BME280;68167;59.120;37.898;2023-11-21T02:30:15;100027.78;;;-8.07;67.87
71697;BME280;68167;59.120;37.898;2023-11-21T02:32:42;100016.34;;;-8.14;67.81
71697;BME280;68167;59.120;37.898;2023-11-21T02:35:09;100036.72;;;-8.11;67.25
71697;BME280;68167;59.120;37.898;2023-11-21T02:37:36;99934.00;;;-8.76;67.42
71697;BME280;68167;59.120;37.898;2023-11-21T02:40:02;99977.41;;;-8.51;67.30
71697;BME280;68167;59.120;37.898;2023-11-21T02:42:33;99965.03;;;-8.57;68.00
71697;BME280;68167;59.120;37.898;2023-11-21T02:45:00;99985.16;;;-8.41;67.75
71697;BME280;68167;59.120;37.898;2023-11-21T02:47:26;99981.13;;;-8.34;68.40
71697;BME280;68167;59.120;37.898;2023-11-21T02:49:53;99970.66;;;-8.33;67.58
71697;BME280;68167;59.120;37.898;2023-11-21T02:52:19;99953.25;;;-8.40;68.14
71697;BME280;68167;59.120;37.898;2023-11-21T02:54:47;99958.69;;;-8.34;67.36
71697;BME280;68167;59.120;37.898;2023-11-21T02:57:13;99959.78;;;-8.36;68.20
71697;BME280;68167;59.120;37.898;2023-11-21T02:59:40;100018.72;;;-7.91;68.30
71697;BME280;68167;59.120;37.898;2023-11-21T03:02:06;99991.91;;;-8.00;67.69
71697;BME280;68167;59.120;37.898;2023-11-21T03:04:35;99943.75;;;-8.30;68.03
71697;BME280;68167;59.120;37.898;2023-11-21T03:07:01;99989.56;;;-8.13;68.01
71697;BME280;68167;59.120;37.898;2023-11-21T03:09:27;100005.28;;;-7.85;68.52
71697;BME280;68167;59.120;37.898;2023-11-21T03:11:54;99993.56;;;-7.89;68.79
71697;BME280;68167;59.120;37.898;2023-11-21T03:14:22;100006.63;;;-7.81;68.49
71697;BME280;68167;59.120;37.898;2023-11-21T03:16:48;100003.22;;;-7.91;68.61
71697;BME280;68167;59.120;37.898;2023-11-21T03:19:15;99995.59;;;-7.93;68.14
71697;BME280;68167;59.120;37.898;2023-11-21T03:21:41;100016.53;;;-7.77;68.98
71697;BME280;68167;59.120;37.898;2023-11-21T03:24:08;99999.69;;;-7.90;67.99
71697;BME280;68167;59.120;37.898;2023-11-21T03:26:34;99966.22;;;-8.11;68.15
71697;BME280;68167;59.120;37.898;2023-11-21T03:29:01;99975.31;;;-8.07;68.03
71697;BME280;68167;59.120;37.898;2023-11-21T03:31:27;99976.81;;;-8.05;68.73
71697;BME280;68167;59.120;37.898;2023-11-21T03:33:54;100037.63;;;-7.72;68.86
71697;BME280;68167;59.120;37.898;2023-11-21T03:36:20;99960.09;;;-8.10;68.00
71697;BME280;68167;59.120;37.898;2023-11-21T03:38:48;100014.50;;;-7.73;68.42
71697;BME280;68167;59.120;37.898;2023-11-21T03:41:16;100019.69;;;-7.73;67.91
71697;BME280;68167;59.120;37.898;2023-11-21T03:43:42;100012.88;;;-7.74;67.91
71697;BME280;68167;59.120;37.898;2023-11-21T03:46:08;99887.25;;;-8.52;68.63
71697;BME280;68167;59.120;37.898;2023-11-21T03:48:36;100003.75;;;-7.78;68.60
71697;BME280;68167;59.120;37.898;2023-11-21T03:51:03;100016.97;;;-7.72;68.25
71697;BME280;68167;59.120;37.898;2023-11-21T03:53:29;100007.84;;;-7.76;68.33
71697;BME280;68167;59.120;37.898;2023-11-21T03:55:55;100009.47;;;-7.75;68.06
71697;BME280;68167;59.120;37.898;2023-11-21T03:58:22;99949.63;;;-8.09;68.55
71697;BME280;68167;59.120;37.898;2023-11-21T04:00:48;99955.22;;;-8.04;67.79
71697;BME280;68167;59.120;37.898;2023-11-21T04:03:15;100019.41;;;-7.70;68.25
71697;BME280;68167;59.120;37.898;2023-11-21T04:05:41;100010.56;;;-7.77;68.98
71697;BME280;68167;59.120;37.898;2023-11-21T04:08:08;99961.19;;;-8.03;68.56
71697;BME280;68167;59.120;37.898;2023-11-21T04:10:34;100012.06;;;-7.65;68.93
71697;BME280;68167;59.120;37.898;2023-11-21T04:13:01;100003.91;;;-7.70;68.63
71697;BME280;68167;59.120;37.898;2023-11-21T04:15:27;99951.97;;;-7.96;68.27
71697;BME280;68167;59.120;37.898;2023-11-21T04:17:54;99974.69;;;-7.80;68.61
71697;BME280;68167;59.120;37.898;2023-11-21T04:20:20;100002.16;;;-7.60;68.72
71697;BME280;68167;59.120;37.898;2023-11-21T04:22:46;100005.28;;;-7.56;68.21
71697;BME280;68167;59.120;37.898;2023-11-21T04:25:14;99947.75;;;-7.97;68.19
71697;BME280;68167;59.120;37.898;2023-11-21T04:27:42;99984.75;;;-7.68;68.76
71697;BME280;68167;59.120;37.898;2023-11-21T04:30:12;99900.69;;;-8.20;68.08
71697;BME280;68167;59.120;37.898;2023-11-21T04:32:40;99993.44;;;-7.59;68.68
71697;BME280;68167;59.120;37.898;2023-11-21T04:35:09;99973.72;;;-7.70;68.83
71697;BME280;68167;59.120;37.898;2023-11-21T04:37:35;99938.66;;;-8.01;68.50
71697;BME280;68167;59.120;37.898;2023-11-21T04:40:02;99992.91;;;-7.63;68.06
71697;BME280;68167;59.120;37.898;2023-11-21T04:42:35;99978.75;;;-7.68;68.63
71697;BME280;68167;59.120;37.898;2023-11-21T04:45:06;99944.88;;;-8.04;68.15
71697;BME280;68167;59.120;37.898;2023-11-21T04:47:35;99940.94;;;-8.08;68.69
71697;BME280;68167;59.120;37.898;2023-11-21T04:50:03;99990.72;;;-7.77;69.13
71697;BME280;68167;59.120;37.898;2023-11-21T04:52:31;99944.88;;;-8.04;68.27
71697;BME280;68167;59.120;37.898;2023-11-21T04:54:59;100011.25;;;-7.66;68.39
71697;BME280;68167;59.120;37.898;2023-11-21T04:57:31;99968.84;;;-7.82;68.47
71697;BME280;68167;59.120;37.898;2023-11-21T04:59:58;99904.38;;;-8.22;68.65
71697;BME280;68167;59.120;37.898;2023-11-21T05:02:25;99988.00;;;-7.66;68.59
71697;BME280;68167;59.120;37.898;2023-11-21T05:04:51;99964.50;;;-7.82;68.64
71697;BME280;68167;59.120;37.898;2023-11-21T05:07:19;99947.50;;;-7.94;68.51
71697;BME280;68167;59.120;37.898;2023-11-21T05:09:45;99953.75;;;-7.87;69.14
71697;BME280;68167;59.120;37.898;2023-11-21T05:12:12;100004.88;;;-7.61;68.52
71697;BME280;68167;59.120;37.898;2023-11-21T05:14:40;99949.00;;;-7.91;68.72
71697;BME280;68167;59.120;37.898;2023-11-21T05:17:08;99991.81;;;-7.70;68.42
71697;BME280;68167;59.120;37.898;2023-11-21T05:19:34;99990.19;;;-7.80;68.37
71697;BME280;68167;59.120;37.898;2023-11-21T05:22:02;99980.69;;;-7.80;68.54
71697;BME280;68167;59.120;37.898;2023-11-21T05:24:28;99985.41;;;-7.75;68.47
71697;BME280;68167;59.120;37.898;2023-11-21T05:26:55;100003.50;;;-7.66;68.40
71697;BME280;68167;59.120;37.898;2023-11-21T05:29:22;99999.97;;;-7.65;68.95
71697;BME280;68167;59.120;37.898;2023-11-21T05:31:49;100007.44;;;-7.61;68.67
71697;BME280;68167;59.120;37.898;2023-11-21T05:34:15;100024.59;;;-7.60;68.40
71697;BME280;68167;59.120;37.898;2023-11-21T05:36:44;100014.81;;;-7.57;68.70
71697;BME280;68167;59.120;37.898;2023-11-21T05:39:12;99977.41;;;-7.82;69.15
71697;BME280;68167;59.120;37.898;2023-11-21T05:41:38;99949.66;;;-7.99;68.34
71697;BME280;68167;59.120;37.898;2023-11-21T05:44:05;100007.44;;;-7.61;68.57
71697;BME280;68167;59.120;37.898;2023-11-21T05:46:31;100009.91;;;-7.60;68.86
71697;BME280;68167;59.120;37.898;2023-11-21T05:48:58;100035.75;;;-7.50;68.73
71697;BME280;68167;59.120;37.898;2023-11-21T05:51:24;100019.28;;;-7.59;68.94
71697;BME280;68167;59.120;37.898;2023-11-21T05:53:51;100022.69;;;-7.58;68.81
71697;BME280;68167;59.120;37.898;2023-11-21T05:56:17;99969.94;;;-7.85;nan
71697;BME280;68167;59.120;37.898;2023-11-21T05:58:44;99957.97;;;-7.86;69.23
71697;BME280;68167;59.120;37.898;2023-11-21T06:01:11;100021.75;;;-7.48;69.11
71697;BME280;68167;59.120;37.898;2023-11-21T06:03:39;100008.56;;;-7.45;68.96
71697;BME280;68167;59.120;37.898;2023-11-21T06:06:05;100013.59;;;-7.43;68.75
71697;BME280;68167;59.120;37.898;2023-11-21T06:08:33;99971.69;;;-7.66;68.70
71697;BME280;68167;59.120;37.898;2023-11-21T06:10:59;100028.44;;;-7.36;68.65
71697;BME280;68167;59.120;37.898;2023-11-21T06:13:26;100028.16;;;-7.33;69.16
71697;BME280;68167;59.120;37.898;2023-11-21T06:15:52;99990.31;;;-7.53;68.86
71697;BME280;68167;59.120;37.898;2023-11-21T06:18:19;100046.78;;;-7.19;69.61
71697;BME280;68167;59.120;37.898;2023-11-21T06:20:46;100027.34;;;-7.23;69.51
71697;BME280;68167;59.120;37.898;2023-11-21T06:23:13;100027.19;;;-7.22;68.97
71697;BME280;68167;59.120;37.898;2023-11-21T06:25:40;99952.25;;;-7.70;68.86
71697;BME280;68167;59.120;37.898;2023-11-21T06:28:07;100046.53;;;-7.16;69.27
71697;BME280;68167;59.120;37.898;2023-11-21T06:30:33;99969.09;;;-7.66;68.91
71697;BME280;68167;59.120;37.898;2023-11-21T06:33:00;100051.13;;;-7.10;68.76
71697;BME280;68167;59.120;37.898;2023-11-21T06:35:27;99995.63;;;-7.45;68.78
71697;BME280;68167;59.120;37.898;2023-11-21T06:37:56;99993.72;;;-7.43;69.20
71697;BME280;68167;59.120;37.898;2023-11-21T06:40:23;100037.50;;;-7.12;69.22
71697;BME280;68167;59.120;37.898;2023-11-21T06:42:50;100030.72;;;-7.13;69.14
71697;BME280;68167;59.120;37.898;2023-11-21T06:45:17;100040.09;;;-7.03;69.67
71697;BME280;68167;59.120;37.898;2023-11-21T06:47:44;100048.13;;;-6.96;68.97
71697;BME280;68167;59.120;37.898;2023-11-21T06:50:11;100035.19;;;-6.96;69.78
71697;BME280;68167;59.120;37.898;2023-11-21T06:52:38;100021.84;;;-7.01;69.31
71697;BME280;68167;59.120;37.898;2023-11-21T06:55:04;99978.50;;;-7.26;69.36
71697;BME280;68167;59.120;37.898;2023-11-21T06:57:34;99982.44;;;-7.32;68.73
71697;BME280;68167;59.120;37.898;2023-11-21T07:00:00;99985.16;;;-7.34;68.94
71697;BME280;68167;59.120;37.898;2023-11-21T07:02:27;100027.72;;;-7.09;69.41
71697;BME280;68167;59.120;37.898;2023-11-21T07:04:54;100014.09;;;-7.11;69.31
71697;BME280;68167;59.120;37.898;2023-11-21T07:07:23;100022.13;;;-7.14;68.83
71697;BME280;68167;59.120;37.898;2023-11-21T07:09:49;100050.97;;;-6.99;69.25
71697;BME280;68167;59.120;37.898;2023-11-21T07:12:15;100059.16;;;-6.94;69.14
71697;BME280;68167;59.120;37.898;2023-11-21T07:14:42;100052.19;;;-6.93;69.37
71697;BME280;68167;59.120;37.898;2023-11-21T07:17:11;99980.00;;;-7.34;69.33
71697;BME280;68167;59.120;37.898;2023-11-21T07:19:38;100054.53;;;-6.90;69.31
71697;BME280;68167;59.120;37.898;2023-11-21T07:22:04;100000.94;;;-7.17;69.33
71697;BME280;68167;59.120;37.898;2023-11-21T07:24:32;100030.97;;;-6.97;69.38
71697;BME280;68167;59.120;37.898;2023-11-21T07:26:58;100057.22;;;-6.82;69.24
71697;BME280;68167;59.120;37.898;2023-11-21T07:29:25;100004.72;;;-7.12;68.83
71697;BME280;68167;59.120;37.898;2023-11-21T07:31:52;100007.59;;;-7.15;68.97
71697;BME280;68167;59.120;37.898;2023-11-21T07:34:20;100034.91;;;-6.93;69.31
71697;BME280;68167;59.120;37.898;2023-11-21T07:36:47;99951.97;;;-7.38;69.33
71697;BME280;68167;59.120;37.898;2023-11-21T07:39:13;100036.00;;;-6.86;69.61
71697;BME280;68167;59.120;37.898;2023-11-21T07:41:42;99949.94;;;-7.44;69.99
71697;BME280;68167;59.120;37.898;2023-11-21T07:44:16;100044.97;;;-6.80;69.22
71697;BME280;68167;59.120;37.898;2023-11-21T07:46:43;100009.06;;;-7.03;68.93
71697;BME280;68167;59.120;37.898;2023-11-21T07:49:09;100032.19;;;-6.91;68.81
71697;BME280;68167;59.120;37.898;2023-11-21T07:51:35;100059.25;;;-6.76;69.28
71697;BME280;68167;59.120;37.898;2023-11-21T07:54:02;100045.25;;;-6.83;69.47
71697;BME280;68167;59.120;37.898;2023-11-21T07:56:28;100058.19;;;-6.74;69.02
71697;BME280;68167;59.120;37.898;2023-11-21T07:58:54;100029.19;;;-6.97;69.04
71697;BME280;68167;59.120;37.898;2023-11-21T08:01:20;100052.75;;;-6.90;68.92
71697;BME280;68167;59.120;37.898;2023-11-21T08:03:47;100026.78;;;-7.17;68.72
71697;BME280;68167;59.120;37.898;2023-11-21T08:06:17;100070.03;;;-6.90;68.74
71697;BME280;68167;59.120;37.898;2023-11-21T08:08:43;100041.19;;;-7.05;68.62
71697;BME280;68167;59.120;37.898;2023-11-21T08:11:10;100057.38;;;-6.93;69.54
71697;BME280;68167;59.120;37.898;2023-11-21T08:13:36;100066.09;;;-6.85;68.95
71697;BME280;68167;59.120;37.898;2023-11-21T08:16:03;100036.28;;;-6.99;69.26
71697;BME280;68167;59.120;37.898;2023-11-21T08:18:31;100023.63;;;-7.11;69.29
71697;BME280;68167;59.120;37.898;2023-11-21T08:20:57;100038.06;;;-6.99;69.71
71697;BME280;68167;59.120;37.898;2023-11-21T08:23:23;100056.81;;;-6.87;69.44
71697;BME280;68167;59.120;37.898;2023-11-21T08:25:53;100047.31;;;-6.97;69.21
71697;BME280;68167;59.120;37.898;2023-11-21T08:28:20;100067.19;;;-6.87;69.42
71697;BME280;68167;59.120;37.898;2023-11-21T08:30:48;100056.44;;;-6.92;69.43
71697;BME280;68167;59.120;37.898;2023-11-21T08:33:14;99993.72;;;-7.23;69.79
71697;BME280;68167;59.120;37.898;2023-11-21T08:35:41;99931.97;;;-7.55;69.84
71697;BME280;68167;59.120;37.898;2023-11-21T08:38:07;100061.88;;;-6.86;69.78
71697;BME280;68167;59.120;37.898;2023-11-21T08:40:35;100058.72;;;-6.80;69.00
71697;BME280;68167;59.120;37.898;2023-11-21T08:43:02;99928.03;;;-7.69;68.93
71697;BME280;68167;59.120;37.898;2023-11-21T08:45:31;100048.38;;;-6.89;68.72
71697;BME280;68167;59.120;37.898;2023-11-21T08:48:01;100025.66;;;-7.05;69.15
71697;BME280;68167;59.120;37.898;2023-11-21T08:50:29;100044.84;;;-6.98;68.67
71697;BME280;68167;59.120;37.898;2023-11-21T08:52:55;100055.06;;;-6.97;68.32
71697;BME280;68167;59.120;37.898;2023-11-21T08:55:22;100039.97;;;-7.01;68.45
71697;BME280;68167;59.120;37.898;2023-11-21T08:57:48;100015.09;;;-7.21;68.48
71697;BME280;68167;59.120;37.898;2023-11-21T09:00:15;100047.72;;;-7.01;68.20
71697;BME280;68167;59.120;37.898;2023-11-21T09:02:44;99999.03;;;-7.35;68.54
71697;BME280;68167;59.120;37.898;2023-11-21T09:05:13;100040.22;;;-7.14;68.18
71697;BME280;68167;59.120;37.898;2023-11-21T09:07:41;100049.38;;;-7.19;68.21
71697;BME280;68167;59.120;37.898;2023-11-21T09:10:08;100058.91;;;-7.20;67.90
71697;BME280;68167;59.120;37.898;2023-11-21T09:12:37;100005.00;;;-7.53;67.90
71697;BME280;68167;59.120;37.898;2023-11-21T09:15:06;100025.69;;;-7.44;66.96
71697;BME280;68167;59.120;37.898;2023-11-21T09:17:33;100058.50;;;-7.35;67.87
71697;BME280;68167;59.120;37.898;2023-11-21T09:20:01;100008.13;;;-7.69;67.26
71697;BME280;68167;59.120;37.898;2023-11-21T09:22:32;100039.16;;;-7.50;67.04
71697;BME280;68167;59.120;37.898;2023-11-21T09:24:59;99997.38;;;-7.74;67.43
71697;BME280;68167;59.120;37.898;2023-11-21T09:27:26;100044.59;;;-7.43;67.51
71697;BME280;68167;59.120;37.898;2023-11-21T09:29:52;100033.16;;;-7.50;67.13
71697;BME280;68167;59.120;37.898;2023-11-21T09:32:20;99983.41;;;-7.81;67.14
71697;BME280;68167;59.120;37.898;2023-11-21T09:34:51;99975.75;;;-7.92;67.16
71697;BME280;68167;59.120;37.898;2023-11-21T09:37:17;100028.94;;;-7.61;67.10
71697;BME280;68167;59.120;37.898;2023-11-21T09:39:45;100045.69;;;-7.55;66.95
71697;BME280;68167;59.120;37.898;2023-11-21T09:42:38;100044.06;;;-7.47;67.23
71697;BME280;68167;59.120;37.898;2023-11-21T09:47:49;100008.94;;;-7.69;67.14
71697;BME280;68167;59.120;37.898;2023-11-21T09:50:17;100044.88;;;-7.56;66.83
71697;BME280;68167;59.120;37.898;2023-11-21T09:55:22;100008.41;;;-7.72;67.48
71697;BME280;68167;59.120;37.898;2023-11-21T09:57:49;100006.34;;;-7.69;67.13
71697;BME280;68167;59.120;37.898;2023-11-21T10:00:16;100058.22;;;-7.41;67.50
71697;BME280;68167;59.120;37.898;2023-11-21T10:02:45;100060.94;;;-7.33;67.22
71697;BME280;68167;59.120;37.898;2023-11-21T10:05:13;100071.00;;;-7.30;67.66
71697;BME280;68167;59.120;37.898;2023-11-21T10:07:40;100060.53;;;-7.28;67.51
71697;BME280;68167;59.120;37.898;2023-11-21T10:10:09;100035.63;;;-7.49;66.94
71697;BME280;68167;59.120;37.898;2023-11-21T10:12:36;100061.91;;;-7.34;67.36
71697;BME280;68167;59.120;37.898;2023-11-21T10:15:07;100008.81;;;-7.67;67.56
71697;BME280;68167;59.120;37.898;2023-11-21T10:17:36;100021.06;;;-7.59;66.88
71697;BME280;68167;59.120;37.898;2023-11-21T10:20:10;100008.94;;;-7.69;66.66
71697;BME280;68167;59.120;37.898;2023-11-21T10:22:41;100075.50;;;-7.32;66.96
71697;BME280;68167;59.120;37.898;2023-11-21T10:25:11;100039.69;;;-7.66;66.70
71697;BME280;68167;59.120;37.898;2023-11-21T10:27:41;100064.44;;;-7.63;66.57
71697;BME280;68167;59.120;37.898;2023-11-21T10:30:08;100074.38;;;-7.58;66.43
71697;BME280;68167;59.120;37.898;2023-11-21T10:32:39;100043.47;;;-7.79;66.74
71697;BME280;68167;59.120;37.898;2023-11-21T10:35:08;100101.28;;;-7.61;66.28
71697;BME280;68167;59.120;37.898;2023-11-21T10:37:38;100095.56;;;-7.65;66.57
71697;BME280;68167;59.120;37.898;2023-11-21T10:40:09;100045.31;;;-8.01;66.11
71697;BME280;68167;59.120;37.898;2023-11-21T10:42:39;100038.38;;;-8.10;66.94
71697;BME280;68167;59.120;37.898;2023-11-21T10:45:08;100087.09;;;-7.76;66.81
71697;BME280;68167;59.120;37.898;2023-11-21T10:47:42;100044.81;;;-7.94;66.52
71697;BME280;68167;59.120;37.898;2023-11-21T10:50:09;100078.97;;;-7.72;66.64
71697;BME280;68167;59.120;37.898;2023-11-21T10:52:39;100068.88;;;-7.75;66.75
71697;BME280;68167;59.120;37.898;2023-11-21T10:55:26;100096.78;;;-7.69;66.26
71697;BME280;68167;59.120;37.898;2023-11-21T10:57:54;100094.59;;;-7.83;66.29
71697;BME280;68167;59.120;37.898;2023-11-21T11:00:20;100108.06;;;-7.70;66.88
71697;BME280;68167;59.120;37.898;2023-11-21T11:02:50;100064.53;;;-7.74;67.13
71697;BME280;68167;59.120;37.898;2023-11-21T11:05:21;100100.41;;;-7.31;66.69
71697;BME280;68167;59.120;37.898;2023-11-21T11:07:49;100047.59;;;-7.48;67.28
71697;BME280;68167;59.120;37.898;2023-11-21T11:10:21;100083.94;;;-7.11;67.00
71697;BME280;68167;59.120;37.898;2023-11-21T11:12:49;100091.44;;;-7.17;66.39
71697;BME280;68167;59.120;37.898;2023-11-21T11:15:19;100094.97;;;-7.18;66.46
71697;BME280;68167;59.120;37.898;2023-11-21T11:17:46;100051.41;;;-7.42;66.35
71697;BME280;68167;59.120;37.898;2023-11-21T11:20:15;100058.91;;;-7.39;66.03
71697;BME280;68167;59.120;37.898;2023-11-21T11:26:05;100040.50;;;-7.55;66.31
71697;BME280;68167;59.120;37.898;2023-11-21T11:31:39;100067.06;;;-7.24;66.15
71697;BME280;68167;59.120;37.898;2023-11-21T11:34:32;100094.44;;;-7.22;65.98
71697;BME280;68167;59.120;37.898;2023-11-21T11:37:03;100091.16;;;-7.34;65.75
71697;BME280;68167;59.120;37.898;2023-11-21T11:41:59;100092.91;;;-7.44;66.51
71697;BME280;68167;59.120;37.898;2023-11-21T11:44:57;100107.06;;;-7.38;66.30
71697;BME280;68167;59.120;37.898;2023-11-21T11:47:28;100063.59;;;-7.73;66.06
71697;BME280;68167;59.120;37.898;2023-11-21T11:52:45;100057.34;;;-7.80;66.19
71697;BME280;68167;59.120;37.898;2023-11-21T11:55:16;100108.25;;;-7.52;65.88
71697;BME280;68167;59.120;37.898;2023-11-21T11:57:53;100052.72;;;-7.86;66.57
71697;BME280;68167;59.120;37.898;2023-11-21T12:00:34;100083.69;;;-7.77;66.63
71697;BME280;68167;59.120;37.898;2023-11-21T12:03:05;100053.63;;;-7.97;66.00
71697;BME280;68167;59.120;37.898;2023-11-21T12:05:34;100090.50;;;-7.76;66.35
71697;BME280;68167;59.120;37.898;2023-11-21T12:08:06;100104.38;;;-7.77;66.01
71697;BME280;68167;59.120;37.898;2023-11-21T12:10:35;100058.72;;;-8.16;66.79
71697;BME280;68167;59.120;37.898;2023-11-21T12:15:29;100079.97;;;-8.03;66.84
71697;BME280;68167;59.120;37.898;2023-11-21T12:17:58;100114.81;;;-7.88;66.79
71697;BME280;68167;59.120;37.898;2023-11-21T12:20:28;100069.34;;;-8.10;66.62
71697;BME280;68167;59.120;37.898;2023-11-21T12:22:56;100122.59;;;-7.78;67.28
71697;BME280;68167;59.120;37.898;2023-11-21T12:25:26;100115.25;;;-7.83;67.17
71697;BME280;68167;59.120;37.898;2023-11-21T12:28:03;100109.41;;;-7.85;67.44
71697;BME280;68167;59.120;37.898;2023-11-21T12:30:30;100128.03;;;-7.72;67.30
71697;BME280;68167;59.120;37.898;2023-11-21T12:32:59;100071.41;;;-8.04;67.19
71697;BME280;68167;59.120;37.898;2023-11-21T12:35:29;100125.59;;;-7.73;66.83
71697;BME280;68167;59.120;37.898;2023-11-21T12:37:57;100080.66;;;-8.01;66.96
71697;BME280;68167;59.120;37.898;2023-11-21T12:40:24;100026.31;;;-8.30;67.32
71697;BME280;68167;59.120;37.898;2023-11-21T12:42:53;100070.06;;;-7.98;66.76
71697;BME280;68167;59.120;37.898;2023-11-21T12:45:20;100116.66;;;-7.59;66.93
71697;BME280;68167;59.120;37.898;2023-11-21T12:47:52;99974.97;;;-8.52;66.77
71697;BME280;68167;59.120;37.898;2023-11-21T12:50:19;100116.22;;;-7.74;67.43
71697;BME280;68167;59.120;37.898;2023-11-21T12:52:51;100114.56;;;-7.75;67.35
71697;BME280;68167;59.120;37.898;2023-11-21T12:55:23;100122.19;;;-7.74;67.15
71697;BME280;68167;59.120;37.898;2023-11-21T12:57:54;100071.03;;;-7.99;67.21
71697;BME280;68167;59.120;37.898;2023-11-21T13:00:33;100109.41;;;-7.75;66.54
71697;BME280;68167;59.120;37.898;2023-11-21T13:03:05;100054.13;;;-8.13;67.21
71697;BME280;68167;59.120;37.898;2023-11-21T13:05:37;100121.63;;;-7.77;67.37
71697;BME280;68167;59.120;37.898;2023-11-21T13:08:17;100128.44;;;-7.76;66.97
71697;BME280;68167;59.120;37.898;2023-11-21T13:10:51;100126.81;;;-7.77;66.98